Sunnyslope, Idaho
Current Conditions -  °F | °C
As of 1:55 AM on Sunday 26 Oct 2014 (Local Time) from KEUL Reporting Station
Broken Clouds Broken Clouds  
Wind Chill: 55°   Ceiling: 11000
Heat Index: 55°   Visibility: 10mi
Dew Point: 34°   Wind: 9mph
Humidity: 44%   Direction: 270°W
Pressure: 29.94"   Gusts: NA
Location:  43.676°N, 116.752°W
Report Text: KEUL 260755Z AUTO 27008KT 10SM BKN110 13/01 A2994 RMK AO1
Loading
Personal Weather Stations






























Interactive Weather Map
Tropical Storm Tracking
New forecast layout! Learn more

10-Day Weather Forecast

Advertisements
Track Severe Weather on mobile